createdAt,value
2023-04-20T00:01:03.591Z,0.9
2023-04-20T00:02:11.297Z,1.2
2023-04-20T00:03:20.145Z,0.9
2023-04-20T00:04:29.587Z,1.4
2023-04-20T00:05:37.297Z,0.8
2023-04-20T00:06:47.048Z,1.1
2023-04-20T00:07:55.760Z,1
2023-04-20T00:09:03.403Z,0.8
2023-04-20T00:10:13.097Z,0.9
2023-04-20T00:11:20.763Z,0.8
2023-04-20T00:12:29.423Z,0.7
2023-04-20T00:13:39.086Z,0.9
2023-04-20T00:14:47.740Z,0.9
2023-04-20T00:15:57.461Z,1.2
2023-04-20T00:17:07.139Z,1.2
2023-04-20T00:18:15.829Z,1
2023-04-20T00:19:25.499Z,1
2023-04-20T00:20:34.153Z,0.9
2023-04-20T00:21:42.853Z,1.1
2023-04-20T00:22:52.540Z,1.4
2023-04-20T00:24:00.206Z,1.3
2023-04-20T00:25:09.858Z,1.2
2023-04-20T00:26:18.558Z,1.4
2023-04-20T00:27:27.245Z,1.2
2023-04-20T00:28:36.911Z,1.2
2023-04-20T00:29:45.573Z,1.1
2023-04-20T00:30:53.276Z,1.4
2023-04-20T00:32:01.888Z,1.2
2023-04-20T00:33:11.575Z,1.7
2023-04-20T00:34:21.308Z,0.8
2023-04-20T00:35:30.034Z,1.3
2023-04-20T00:36:37.698Z,1.4
2023-04-20T00:37:47.454Z,1.3
2023-04-20T00:38:56.129Z,0.9
2023-04-20T00:40:05.823Z,1.3
2023-04-20T00:41:15.501Z,1.3
2023-04-20T00:42:24.215Z,1.5
2023-04-20T00:43:33.888Z,1.3
2023-04-20T00:44:43.569Z,1.2
2023-04-20T00:45:52.305Z,1.4
2023-04-20T00:47:01.920Z,1.3
2023-04-20T00:48:10.578Z,1.3
2023-04-20T00:49:19.504Z,1.6
2023-04-20T00:50:28.936Z,1.3
2023-04-20T00:51:37.595Z,1.1
2023-04-20T00:52:47.244Z,1.4
2023-04-20T00:53:56.893Z,1.3
2023-04-20T00:55:04.561Z,1.5
2023-04-20T00:56:14.324Z,1
2023-04-20T00:57:21.949Z,1.6
2023-04-20T00:58:30.656Z,1.8
2023-04-20T00:59:40.319Z,1.2
2023-04-20T01:00:49.018Z,1.4
2023-04-20T01:01:58.857Z,1.6
2023-04-20T01:03:08.592Z,1.3
2023-04-20T01:04:16.118Z,1.7
2023-04-20T01:05:25.792Z,1.7
2023-04-20T01:06:33.502Z,2
2023-04-20T01:07:42.202Z,2.2
2023-04-20T01:08:51.908Z,2.3
2023-04-20T01:10:00.550Z,2.4
2023-04-20T01:11:10.225Z,2.5
2023-04-20T01:12:20.009Z,1.8
2023-04-20T01:13:28.571Z,2.2
2023-04-20T01:14:38.244Z,2
2023-04-20T01:15:45.947Z,1.1
2023-04-20T01:16:54.597Z,2
2023-04-20T01:18:04.271Z,2.6
2023-04-20T01:19:12.932Z,2.8
2023-04-20T01:20:22.603Z,2.4
2023-04-20T01:21:32.275Z,2
2023-04-20T01:22:39.936Z,1.7
2023-04-20T01:23:49.596Z,1.8
2023-04-20T01:24:58.277Z,1.8
2023-04-20T01:26:06.996Z,1.6
2023-04-20T01:27:15.644Z,1.4
2023-04-20T01:28:24.372Z,1.7
2023-04-20T01:29:34.017Z,1.4
2023-04-20T01:30:43.881Z,1.9
2023-04-20T01:31:54.737Z,1.7
2023-04-20T01:33:04.408Z,1.8
2023-04-20T01:34:13.021Z,1.5
2023-04-20T01:35:22.677Z,1.7
2023-04-20T01:36:32.489Z,1.6
2023-04-20T01:37:40.181Z,1.7
2023-04-20T01:38:49.860Z,1.3
2023-04-20T01:39:58.548Z,1.7
2023-04-20T01:41:06.225Z,1.1
2023-04-20T01:42:15.896Z,1.7
2023-04-20T01:43:25.584Z,1.2
2023-04-20T01:44:35.261Z,1.4
2023-04-20T01:45:44.898Z,1.2
2023-04-20T01:46:53.645Z,1.6
2023-04-20T01:48:03.316Z,1.5
2023-04-20T01:49:11.940Z,1.5
2023-04-20T01:50:21.602Z,1.1
2023-04-20T01:51:31.288Z,0.9
2023-04-20T01:52:38.968Z,1.2
2023-04-20T01:53:47.604Z,1
2023-04-20T01:54:57.305Z,1.1
2023-04-20T01:56:05.012Z,1.2
2023-04-20T01:57:14.680Z,1.1
2023-04-20T01:58:23.342Z,1.3
2023-04-20T01:59:32.004Z,1.3
2023-04-20T02:00:41.722Z,2
2023-04-20T02:01:50.426Z,1.7
2023-04-20T02:03:00.101Z,1.8
2023-04-20T02:04:09.764Z,1.8
2023-04-20T02:05:19.410Z,2
2023-04-20T02:06:28.090Z,1.7
2023-04-20T02:07:37.765Z,1.7
2023-04-20T02:08:46.446Z,1.6
2023-04-20T02:09:55.104Z,1.4
2023-04-20T02:11:04.775Z,1.4
2023-04-20T02:12:12.461Z,1.7
2023-04-20T02:13:22.156Z,1.6
2023-04-20T02:14:31.825Z,2.2
2023-04-20T02:15:39.504Z,1.5
2023-04-20T02:16:49.191Z,1.7
2023-04-20T02:17:56.838Z,1.2
2023-04-20T02:19:05.537Z,1.5
2023-04-20T02:20:15.188Z,1.5
2023-04-20T02:21:24.865Z,1.8
2023-04-20T02:22:34.557Z,1.4
2023-04-20T02:23:42.203Z,1.5
2023-04-20T02:24:49.881Z,1.7
2023-04-20T02:25:59.555Z,1.4
2023-04-20T02:27:07.238Z,1.6
2023-04-20T02:28:15.931Z,1.3
2023-04-20T02:29:25.629Z,1
2023-04-20T02:30:34.281Z,1.4
2023-04-20T02:31:44.007Z,1.4
2023-04-20T02:32:52.711Z,1
2023-04-20T02:34:01.344Z,1
2023-04-20T02:35:11.016Z,1.3
2023-04-20T02:36:18.680Z,0.7
2023-04-20T02:37:27.354Z,0.9
2023-04-20T02:38:37.011Z,0.8
2023-04-20T02:39:45.731Z,1.1
2023-04-20T02:40:55.348Z,0.7
2023-04-20T02:42:05.039Z,0.7
2023-04-20T02:43:12.696Z,0.7
2023-04-20T02:44:21.377Z,0.8
2023-04-20T02:45:30.027Z,0.8
2023-04-20T02:46:39.705Z,0.8
2023-04-20T02:47:49.378Z,0.7
2023-04-20T02:48:57.062Z,0.9
2023-04-20T02:50:05.738Z,1
2023-04-20T02:51:14.396Z,0.8
2023-04-20T02:52:23.086Z,0.9
2023-04-20T02:53:32.750Z,0.8
2023-04-20T02:54:40.420Z,0.8
2023-04-20T02:55:49.086Z,1.1
2023-04-20T02:56:58.758Z,0.8
2023-04-20T02:58:07.470Z,1
2023-04-20T02:59:17.401Z,1.1
2023-04-20T03:00:25.802Z,0.9
2023-04-20T03:01:32.498Z,0.9
2023-04-20T03:02:42.209Z,1
2023-04-20T03:03:50.001Z,0.8
2023-04-20T03:04:59.505Z,1.1
2023-04-20T03:06:09.177Z,0.9
2023-04-20T03:07:18.856Z,0.9
2023-04-20T03:08:28.524Z,1
2023-04-20T03:09:37.194Z,1
2023-04-20T03:10:44.871Z,0.9
2023-04-20T03:11:54.567Z,0.6
2023-04-20T03:13:02.247Z,0.8
2023-04-20T03:14:11.952Z,1.1
2023-04-20T03:15:21.615Z,0.6
2023-04-20T03:16:29.314Z,0.7
2023-04-20T03:17:39.038Z,0.6
2023-04-20T03:18:48.680Z,0.7
2023-04-20T03:19:57.337Z,0.6
2023-04-20T03:21:07.069Z,0.4
2023-04-20T03:22:15.730Z,0.7
2023-04-20T03:23:24.405Z,0.6
2023-04-20T03:24:34.079Z,0.6
2023-04-20T03:25:42.802Z,0.7
2023-04-20T03:26:52.429Z,0.9
2023-04-20T03:28:02.112Z,1.1
2023-04-20T03:29:09.839Z,1
2023-04-20T03:30:19.621Z,0.9
2023-04-20T03:31:29.309Z,0.9
2023-04-20T03:32:37.968Z,1.1
2023-04-20T03:33:46.636Z,1.1
2023-04-20T03:34:55.301Z,1
2023-04-20T03:36:05.014Z,1.4
2023-04-20T03:37:13.701Z,1.3
2023-04-20T03:38:23.465Z,1.4
2023-04-20T03:39:33.131Z,1.1
2023-04-20T03:40:41.813Z,1.3
2023-04-20T03:41:50.624Z,1.4
2023-04-20T03:43:00.360Z,1
2023-04-20T03:44:09.025Z,1.3
2023-04-20T03:45:18.690Z,1
2023-04-20T03:46:28.471Z,1.5
2023-04-20T03:47:37.112Z,1.4
2023-04-20T03:48:46.772Z,1.5
2023-04-20T03:49:54.439Z,1.4
2023-04-20T03:51:03.096Z,1.6
2023-04-20T03:52:12.811Z,1.2
2023-04-20T03:53:20.623Z,1
2023-04-20T03:54:30.250Z,1
2023-04-20T03:55:38.905Z,1.1
2023-04-20T03:56:47.587Z,0.8
2023-04-20T03:57:56.258Z,0.8
2023-04-20T03:59:05.923Z,0.8
2023-04-20T04:00:14.605Z,0.9
2023-04-20T04:01:24.434Z,0.8
2023-04-20T04:02:34.978Z,0.7
2023-04-20T04:03:42.850Z,0.7
2023-04-20T04:04:52.579Z,0.8
2023-04-20T04:06:00.125Z,0.6
2023-04-20T04:07:08.839Z,0.7
2023-04-20T04:08:18.542Z,0.8
2023-04-20T04:09:27.244Z,0.8
2023-04-20T04:10:36.890Z,0.6
2023-04-20T04:11:45.559Z,0.8
2023-04-20T04:12:53.273Z,0.9
2023-04-20T04:14:02.957Z,0.6
2023-04-20T04:15:11.654Z,1
2023-04-20T04:16:20.399Z,1.1
2023-04-20T04:17:30.013Z,0.9
2023-04-20T04:18:37.756Z,1
2023-04-20T04:19:47.559Z,0.7
2023-04-20T04:20:57.266Z,1.1
2023-04-20T04:22:04.942Z,0.9
2023-04-20T04:23:14.653Z,0.7
2023-04-20T04:24:22.319Z,0.8
2023-04-20T04:25:32.075Z,0.9
2023-04-20T04:26:41.753Z,0.8
2023-04-20T04:27:49.451Z,0.9
2023-04-20T04:28:59.204Z,0.8
2023-04-20T04:30:07.926Z,0.7
2023-04-20T04:31:15.653Z,0.6
2023-04-20T04:32:25.587Z,0.8
2023-04-20T04:33:33.230Z,0.8
2023-04-20T04:34:41.964Z,1
2023-04-20T04:35:51.678Z,0.8
2023-04-20T04:36:59.357Z,0.5
2023-04-20T04:38:09.084Z,0.7
2023-04-20T04:39:17.990Z,0.4
2023-04-20T04:40:26.437Z,0.6
2023-04-20T04:41:36.173Z,0.9
2023-04-20T04:42:43.861Z,0.8
2023-04-20T04:43:51.564Z,0.7
2023-04-20T04:45:01.220Z,0.8
2023-04-20T04:46:10.981Z,0.8
2023-04-20T04:47:20.643Z,0.7
2023-04-20T04:48:30.322Z,0.8
2023-04-20T04:49:38.992Z,0.7
2023-04-20T04:50:48.666Z,0.8
2023-04-20T04:51:57.368Z,0.6
2023-04-20T04:53:07.032Z,0.6
2023-04-20T04:54:16.788Z,0.6
2023-04-20T04:55:24.463Z,0.7
2023-04-20T04:56:34.137Z,0.8
2023-04-20T04:57:42.816Z,0.8
2023-04-20T04:58:50.704Z,0.6
2023-04-20T05:00:00.380Z,0.8
2023-04-20T05:01:08.044Z,0.8
2023-04-20T05:02:16.939Z,0.7
2023-04-20T05:03:26.556Z,0.8
2023-04-20T05:04:36.259Z,0.8
2023-04-20T05:05:45.802Z,0.8
2023-04-20T05:06:54.488Z,0.8
2023-04-20T05:08:03.118Z,0.8
2023-04-20T05:09:12.884Z,0.7
2023-04-20T05:10:22.519Z,1.2
2023-04-20T05:11:30.208Z,0.8
2023-04-20T05:12:39.859Z,0.7
2023-04-20T05:13:48.698Z,0.8
2023-04-20T05:14:57.333Z,0.9
2023-04-20T05:16:07.029Z,1.4
2023-04-20T05:17:14.667Z,1.1
2023-04-20T05:18:24.368Z,1.2
2023-04-20T05:19:34.083Z,1
2023-04-20T05:20:42.805Z,1.4
2023-04-20T05:21:52.458Z,1.5
2023-04-20T05:23:02.176Z,1.3
2023-04-20T05:24:11.855Z,1.4
2023-04-20T05:25:20.532Z,1.6
2023-04-20T05:26:28.205Z,1
2023-04-20T05:27:36.866Z,1.3
2023-04-20T05:28:45.563Z,1.3
2023-04-20T05:29:54.376Z,1.3
2023-04-20T05:31:04.059Z,1.6
2023-04-20T05:32:13.828Z,1.4
2023-04-20T05:33:22.531Z,1.5
2023-04-20T05:34:32.707Z,1.6
2023-04-20T05:35:40.395Z,1.5
2023-04-20T05:36:50.101Z,1.2
2023-04-20T05:37:58.830Z,1.2
2023-04-20T05:39:07.525Z,1.1
2023-04-20T05:40:17.271Z,1.5
2023-04-20T05:41:24.987Z,1.6
2023-04-20T05:42:33.815Z,1.2
2023-04-20T05:43:43.523Z,1.8
2023-04-20T05:44:52.211Z,1.6
2023-04-20T05:46:01.905Z,1.2
2023-04-20T05:47:10.557Z,1.4
2023-04-20T05:48:19.259Z,1.4
2023-04-20T05:49:28.996Z,1.1
2023-04-20T05:50:36.672Z,1.6
2023-04-20T05:51:46.331Z,1.6
2023-04-20T05:52:56.003Z,1.5
2023-04-20T05:54:03.692Z,1.7
2023-04-20T05:55:14.444Z,1.5
2023-04-20T05:56:24.094Z,1.5
2023-04-20T05:57:32.763Z,1.9
2023-04-20T05:58:42.425Z,1.3
2023-04-20T05:59:52.140Z,1.5
2023-04-20T06:01:01.819Z,1.7
2023-04-20T06:02:10.579Z,1.5
2023-04-20T06:03:19.368Z,1.6
2023-04-20T06:04:27.995Z,2.3
2023-04-20T06:05:37.586Z,1.5
2023-04-20T06:06:45.238Z,1.9
2023-04-20T06:07:53.916Z,2
2023-04-20T06:09:03.623Z,2.2
2023-04-20T06:10:12.381Z,1.9
2023-04-20T06:11:22.197Z,1.6
2023-04-20T06:12:31.948Z,2
2023-04-20T06:13:40.621Z,1.7
2023-04-20T06:14:49.332Z,2.1
2023-04-20T06:15:59.042Z,2
2023-04-20T06:17:08.720Z,2.2
2023-04-20T06:18:18.491Z,2.3
2023-04-20T06:19:26.233Z,1.7
2023-04-20T06:20:35.963Z,1.9
2023-04-20T06:21:45.656Z,1.2
2023-04-20T06:22:54.436Z,0.8
2023-04-20T06:24:04.140Z,0.9
2023-04-20T06:25:12.828Z,1
2023-04-20T06:26:21.521Z,1
2023-04-20T06:27:31.188Z,1.1
2023-04-20T06:28:38.852Z,1.7
2023-04-20T06:29:48.526Z,1.4
2023-04-20T06:30:57.205Z,1.2
2023-04-20T06:32:05.890Z,1.4
2023-04-20T06:33:15.602Z,1.4
2023-04-20T06:34:23.393Z,0.7
2023-04-20T06:35:32.024Z,0.7
2023-04-20T06:36:41.706Z,0.8
2023-04-20T06:37:49.379Z,0.6
2023-04-20T06:38:59.080Z,0.8
2023-04-20T06:40:07.853Z,0.8
2023-04-20T06:41:17.486Z,0.5
2023-04-20T06:42:27.203Z,0.6
2023-04-20T06:43:35.872Z,0.6
2023-04-20T06:44:45.547Z,0.4
2023-04-20T06:45:55.246Z,0.6
2023-04-20T06:47:04.025Z,0.5
2023-04-20T06:48:27.881Z,0.7
2023-04-20T06:49:23.352Z,0.7
2023-04-20T06:50:32.078Z,0.6
2023-04-20T06:51:42.727Z,0.8
2023-04-20T06:52:50.414Z,0.7
2023-04-20T06:54:00.095Z,0.9
2023-04-20T06:55:09.803Z,0.8
2023-04-20T06:56:19.568Z,0.8
2023-04-20T06:57:30.252Z,0.7
2023-04-20T06:58:39.929Z,0.9
2023-04-20T06:59:47.614Z,0.7
2023-04-20T07:00:57.325Z,0.7
2023-04-20T07:02:05.060Z,0.9
2023-04-20T07:03:13.844Z,0.7
2023-04-20T07:04:23.366Z,0.7
2023-04-20T07:05:32.047Z,0.7
2023-04-20T07:06:40.747Z,0.7
2023-04-20T07:07:49.374Z,0.9
2023-04-20T07:08:59.077Z,0.7
2023-04-20T07:10:08.726Z,0.9
2023-04-20T07:11:16.451Z,0.7
2023-04-20T07:12:25.132Z,1
2023-04-20T07:13:34.805Z,0.8
2023-04-20T07:14:43.486Z,0.7
2023-04-20T07:15:53.225Z,0.6
2023-04-20T07:17:01.950Z,0.8
2023-04-20T07:18:09.715Z,0.8
2023-04-20T07:19:19.446Z,0.8
2023-04-20T07:20:27.103Z,0.9
2023-04-20T07:21:35.884Z,0.7
2023-04-20T07:22:45.676Z,0.7
2023-04-20T07:23:53.298Z,0.6
2023-04-20T07:25:03.050Z,0.9
2023-04-20T07:26:11.787Z,0.8
2023-04-20T07:27:21.607Z,0.5
2023-04-20T07:28:31.383Z,0.9
2023-04-20T07:29:40.143Z,1
2023-04-20T07:30:49.948Z,0.8
2023-04-20T07:31:59.699Z,0.8
2023-04-20T07:33:07.579Z,1
2023-04-20T07:34:17.559Z,0.9
2023-04-20T07:35:25.033Z,0.8
2023-04-20T07:36:32.781Z,0.6
2023-04-20T07:37:42.577Z,0.9
2023-04-20T07:38:50.603Z,0.9
2023-04-20T07:40:00.296Z,0.9
2023-04-20T07:41:10.305Z,0.7
2023-04-20T07:42:18.221Z,0.6
2023-04-20T07:43:27.936Z,1
2023-04-20T07:44:36.884Z,0.8
2023-04-20T07:45:44.735Z,0.7
2023-04-20T07:46:54.566Z,0.8
2023-04-20T07:48:02.495Z,1
2023-04-20T07:49:12.539Z,0.8
2023-04-20T07:50:22.557Z,0.7
2023-04-20T07:51:31.363Z,0.6
2023-04-20T07:52:41.171Z,0.9
2023-04-20T07:53:50.888Z,0.9
2023-04-20T07:54:59.845Z,0.9
2023-04-20T07:56:08.376Z,1
2023-04-20T07:57:18.147Z,1.1
2023-04-20T07:58:25.931Z,0.8
2023-04-20T07:59:34.675Z,0.8
2023-04-20T08:00:43.410Z,0.9
2023-04-20T08:01:52.684Z,0.8
2023-04-20T08:03:02.844Z,0.9
2023-04-20T08:04:11.620Z,1.1
2023-04-20T08:05:20.293Z,1.4
2023-04-20T08:06:29.962Z,1.2
2023-04-20T08:07:37.675Z,1
2023-04-20T08:08:47.403Z,1.3
2023-04-20T08:09:56.096Z,1.2
2023-04-20T08:11:05.877Z,1.2
2023-04-20T08:12:15.556Z,1.2
2023-04-20T08:13:25.263Z,1.1
2023-04-20T08:14:33.024Z,1.1
2023-04-20T08:15:42.795Z,1.4
2023-04-20T08:16:52.467Z,1.1
2023-04-20T08:18:02.396Z,1
2023-04-20T08:19:11.912Z,1.3
2023-04-20T08:20:19.653Z,1.6
2023-04-20T08:21:29.340Z,1.1
2023-04-20T08:22:37.045Z,1.2
2023-04-20T08:23:45.761Z,1.2
2023-04-20T08:24:55.460Z,1.2
2023-04-20T08:26:03.269Z,1.1
2023-04-20T08:27:12.949Z,1.1
2023-04-20T08:28:33.210Z,1
2023-04-20T08:29:31.324Z,1.3
2023-04-20T08:30:41.033Z,1.2
2023-04-20T08:31:51.249Z,1.2
2023-04-20T08:33:00.463Z,1.1
2023-04-20T08:34:10.095Z,1
2023-04-20T08:35:18.816Z,1.1
2023-04-20T08:36:28.562Z,1.3
2023-04-20T08:37:38.239Z,1.2
2023-04-20T08:38:46.929Z,1.4
2023-04-20T08:39:56.623Z,1.6
2023-04-20T08:41:05.353Z,1.5
2023-04-20T08:42:13.014Z,1.3
2023-04-20T08:43:22.847Z,1.1
2023-04-20T08:44:31.388Z,1.3
2023-04-20T08:45:41.116Z,1.1
2023-04-20T08:46:49.802Z,1.3
2023-04-20T08:47:59.639Z,1.2
2023-04-20T08:49:09.291Z,1.3
2023-04-20T08:50:17.009Z,1.1
2023-04-20T08:51:26.803Z,1.1
2023-04-20T08:52:35.725Z,0.8
2023-04-20T08:53:43.376Z,1.1
2023-04-20T08:54:57.147Z,1.3
2023-04-20T08:56:01.752Z,1.4
2023-04-20T08:57:10.432Z,1.1
2023-04-20T08:58:20.183Z,1.4
2023-04-20T08:59:27.906Z,1.6
2023-04-20T09:00:36.623Z,1.4
2023-04-20T09:01:46.427Z,1.2
2023-04-20T09:02:54.136Z,1.2
2023-04-20T09:04:03.944Z,0.7
2023-04-20T09:05:12.591Z,0.9
2023-04-20T09:06:23.347Z,0.5
2023-04-20T09:07:32.941Z,0.6
2023-04-20T09:08:41.657Z,0.5
2023-04-20T09:09:50.302Z,0.4
2023-04-20T09:11:00.207Z,0.7
2023-04-20T09:12:09.904Z,1.1
2023-04-20T09:13:19.641Z,1.9
2023-04-20T09:14:28.324Z,1.7
2023-04-20T09:15:37.104Z,1.8
2023-04-20T09:16:45.963Z,1.3
2023-04-20T09:17:54.713Z,1.4
2023-04-20T09:19:03.360Z,1.1
2023-04-20T09:20:13.070Z,1.1
2023-04-20T09:21:21.846Z,2.2
2023-04-20T09:22:31.528Z,2.5
2023-04-20T09:23:41.283Z,2.9
2023-04-20T09:24:49.981Z,2.1
2023-04-20T09:25:59.709Z,2.1
2023-04-20T09:27:07.433Z,1.8
2023-04-20T09:28:17.114Z,1.5
2023-04-20T09:29:27.053Z,1.9
2023-04-20T09:30:34.873Z,1.8
2023-04-20T09:31:44.701Z,1.7
2023-04-20T09:32:54.333Z,1.5
2023-04-20T09:34:02.977Z,1.3
2023-04-20T09:35:12.664Z,1.1
2023-04-20T09:36:21.436Z,0.8
2023-04-20T09:37:30.140Z,0.8
2023-04-20T09:38:38.815Z,1.2
2023-04-20T09:39:46.499Z,1.3
2023-04-20T09:40:56.201Z,1.2
2023-04-20T09:42:04.897Z,1.2
2023-04-20T09:43:15.263Z,1.2
2023-04-20T09:44:24.281Z,0.9
2023-04-20T09:45:30.982Z,1.3
2023-04-20T09:46:40.685Z,1.2
2023-04-20T09:47:50.610Z,1.3
2023-04-20T09:49:00.049Z,1.1
2023-04-20T09:50:19.860Z,1.1
2023-04-20T09:51:19.434Z,1.1
2023-04-20T09:52:27.100Z,0.9
2023-04-20T09:53:35.828Z,0.9
2023-04-20T09:54:45.471Z,1.2
2023-04-20T09:55:54.174Z,0.7
2023-04-20T09:57:03.886Z,0.8
2023-04-20T09:58:13.598Z,1.1
2023-04-20T09:59:21.248Z,1
2023-04-20T10:00:30.938Z,1.1
2023-04-20T10:01:38.708Z,0.7
2023-04-20T10:02:47.514Z,1.1
2023-04-20T10:03:57.170Z,0.8
2023-04-20T10:05:05.711Z,0.7
2023-04-20T10:06:15.421Z,0.7
2023-04-20T10:07:24.077Z,0.9
2023-04-20T10:08:32.890Z,0.6
2023-04-20T10:09:42.579Z,1.2
2023-04-20T10:10:50.242Z,1.2
2023-04-20T10:11:59.937Z,0.9
2023-04-20T10:13:09.603Z,0.8
2023-04-20T10:14:18.420Z,0.9
2023-04-20T10:15:27.956Z,0.9
2023-04-20T10:16:36.698Z,1
2023-04-20T10:17:44.368Z,1
2023-04-20T10:18:54.121Z,0.9
2023-04-20T10:20:01.693Z,0.9
2023-04-20T10:21:10.366Z,0.9
2023-04-20T10:22:20.085Z,0.8
2023-04-20T10:23:27.790Z,1.1
2023-04-20T10:24:37.458Z,1.2
2023-04-20T10:25:45.107Z,1
2023-04-20T10:26:53.803Z,0.7
2023-04-20T10:28:03.458Z,1
2023-04-20T10:29:11.105Z,0.8
2023-04-20T10:30:20.764Z,1
2023-04-20T10:31:30.461Z,1
2023-04-20T10:32:39.104Z,1
2023-04-20T10:33:48.752Z,1.2
2023-04-20T10:34:58.419Z,0.9
2023-04-20T10:36:07.121Z,1
2023-04-20T10:37:16.828Z,1
2023-04-20T10:38:25.497Z,1
2023-04-20T10:39:34.187Z,0.8
2023-04-20T10:40:43.853Z,1.4
2023-04-20T10:41:53.645Z,1
2023-04-20T10:43:03.329Z,1.4
2023-04-20T10:44:13.084Z,1.3
2023-04-20T10:45:20.763Z,1.2
2023-04-20T10:46:30.476Z,1
2023-04-20T10:47:38.238Z,1.4
2023-04-20T10:48:46.894Z,1.6
2023-04-20T10:49:56.559Z,1.2
2023-04-20T10:51:05.231Z,1.5
2023-04-20T10:52:14.990Z,1.2
2023-04-20T10:53:24.811Z,1.4
2023-04-20T10:54:32.514Z,1.5
2023-04-20T10:55:42.193Z,1
2023-04-20T10:56:49.894Z,1.2
2023-04-20T10:57:58.603Z,1.4
2023-04-20T10:59:08.305Z,1.3
2023-04-20T11:00:16.014Z,1.4
2023-04-20T11:01:25.713Z,1.5
2023-04-20T11:02:35.510Z,1.6
2023-04-20T11:03:44.343Z,1.2
2023-04-20T11:04:53.999Z,1.3
2023-04-20T11:06:02.656Z,1.7
2023-04-20T11:07:11.392Z,1.7
2023-04-20T11:08:21.144Z,1.8
2023-04-20T11:09:28.827Z,1.6
2023-04-20T11:10:38.537Z,1.4
2023-04-20T11:11:47.237Z,1.5
2023-04-20T11:12:55.942Z,1.4
2023-04-20T11:14:05.606Z,1.3
2023-04-20T11:15:13.292Z,1.4
2023-04-20T11:16:22.430Z,1.4
2023-04-20T11:17:31.759Z,1.2
2023-04-20T11:18:39.402Z,1.4
2023-04-20T11:19:49.088Z,1.5
2023-04-20T11:20:57.779Z,1.2
2023-04-20T11:22:06.487Z,1.9
2023-04-20T11:23:16.218Z,1.5
2023-04-20T11:24:24.088Z,1.4
2023-04-20T11:25:33.744Z,1.4
2023-04-20T11:26:43.439Z,1.2
2023-04-20T11:27:51.119Z,1.5
2023-04-20T11:29:00.905Z,1.6
2023-04-20T11:30:09.569Z,1.2
2023-04-20T11:31:17.351Z,1.9
2023-04-20T11:32:27.795Z,1
2023-04-20T11:33:35.426Z,1.3
2023-04-20T11:34:48.034Z,1.1
2023-04-20T11:35:54.819Z,1.6
2023-04-20T11:37:03.592Z,1.5
2023-04-20T11:38:13.360Z,1.1
2023-04-20T11:39:22.044Z,1.2
2023-04-20T11:40:31.753Z,1
2023-04-20T11:41:41.436Z,1.4
2023-04-20T11:42:50.181Z,1.2
2023-04-20T11:43:58.876Z,1.2
2023-04-20T11:45:08.545Z,1.4
2023-04-20T11:46:18.504Z,2.4
2023-04-20T11:47:28.113Z,2.5
2023-04-20T11:48:37.802Z,2.1
2023-04-20T11:49:45.476Z,2
2023-04-20T11:50:54.211Z,1.8
2023-04-20T11:52:03.936Z,1.9
2023-04-20T11:53:11.722Z,2.4
2023-04-20T11:54:21.424Z,2.4
2023-04-20T11:55:30.126Z,2.1
2023-04-20T11:56:38.900Z,2.2
2023-04-20T11:57:47.535Z,2.1
2023-04-20T11:58:55.178Z,1.6
2023-04-20T12:00:04.952Z,1.6
2023-04-20T12:01:14.689Z,1.1
2023-04-20T12:02:24.494Z,1.3
2023-04-20T12:03:34.529Z,2.2
2023-04-20T12:04:44.241Z,1.4
2023-04-20T12:05:52.915Z,1.2
2023-04-20T12:07:02.518Z,1.7
2023-04-20T12:08:10.541Z,1.7
2023-04-20T12:09:20.480Z,1.7
2023-04-20T12:10:29.985Z,1.9
2023-04-20T12:11:38.719Z,1.6
2023-04-20T12:12:48.486Z,2.3
2023-04-20T12:13:58.122Z,2.3
2023-04-20T12:15:05.788Z,2.1
2023-04-20T12:16:15.471Z,2.3
2023-04-20T12:17:23.144Z,1.6
2023-04-20T12:18:30.820Z,2.8
2023-04-20T12:19:39.587Z,2.7
2023-04-20T12:20:47.339Z,2.5
2023-04-20T12:21:56.996Z,2.7
2023-04-20T12:23:05.766Z,3
2023-04-20T12:24:13.429Z,2
2023-04-20T12:25:23.132Z,1.7
2023-04-20T12:26:38.223Z,1.5
2023-04-20T12:27:42.580Z,1.5
2023-04-20T12:28:52.460Z,1.5
2023-04-20T12:29:59.971Z,1.3
2023-04-20T12:31:09.658Z,1.4
2023-04-20T12:32:18.321Z,1.5
2023-04-20T12:33:27.043Z,1.6
2023-04-20T12:34:36.713Z,1.9
2023-04-20T12:35:45.425Z,1.8
2023-04-20T12:36:54.085Z,1.6
2023-04-20T12:38:03.738Z,1.2
2023-04-20T12:39:12.433Z,1.7
2023-04-20T12:40:22.100Z,1.5
2023-04-20T12:41:30.787Z,1.5
2023-04-20T12:42:39.493Z,1.5
2023-04-20T12:43:49.201Z,2.1
2023-04-20T12:44:56.971Z,1.6
2023-04-20T12:46:05.626Z,1.5
2023-04-20T12:47:15.282Z,2
2023-04-20T12:48:23.991Z,2.2
2023-04-20T12:49:33.972Z,2
2023-04-20T12:50:42.329Z,1.8
2023-04-20T12:51:50.010Z,1.4
2023-04-20T12:52:59.681Z,2.2
2023-04-20T12:54:07.385Z,2.4
2023-04-20T12:55:16.034Z,2.8
2023-04-20T12:56:25.689Z,2.4
2023-04-20T12:57:33.366Z,2.4
2023-04-20T12:58:43.078Z,2.9
2023-04-20T12:59:51.755Z,2.4
2023-04-20T13:01:00.726Z,2.5
2023-04-20T13:02:09.171Z,2.3
2023-04-20T13:03:16.905Z,2.5
2023-04-20T13:04:25.741Z,2.9
2023-04-20T13:05:35.198Z,2.4
2023-04-20T13:06:44.877Z,2.9
2023-04-20T13:07:54.587Z,3.2
2023-04-20T13:09:04.310Z,2.5
2023-04-20T13:10:12.956Z,2.1
2023-04-20T13:11:22.637Z,2.3
2023-04-20T13:12:31.318Z,2
2023-04-20T13:13:40.048Z,2
2023-04-20T13:14:49.794Z,1.8
2023-04-20T13:15:57.569Z,1.5
2023-04-20T13:17:07.230Z,2.2
2023-04-20T13:18:15.879Z,1.9
2023-04-20T13:19:23.614Z,1.3
2023-04-20T13:20:33.327Z,1.3
2023-04-20T13:21:42.015Z,1.4
2023-04-20T13:22:57.381Z,1.3
2023-04-20T13:24:01.372Z,1.5
2023-04-20T13:25:10.035Z,1.3
2023-04-20T13:26:19.715Z,1.2
2023-04-20T13:27:29.401Z,0.9
2023-04-20T13:28:38.073Z,1.2
2023-04-20T13:29:47.793Z,1.3
2023-04-20T13:30:55.643Z,1.4
2023-04-20T13:32:04.284Z,1.2
2023-04-20T13:33:13.901Z,1.3
2023-04-20T13:34:22.608Z,1.2
2023-04-20T13:35:32.283Z,1.3
2023-04-20T13:36:41.998Z,1.6
2023-04-20T13:37:50.721Z,1.4
2023-04-20T13:39:00.414Z,1.2
2023-04-20T13:40:09.092Z,1.1
2023-04-20T13:41:17.778Z,1.2
2023-04-20T13:42:27.472Z,1
2023-04-20T13:43:35.144Z,1.3
2023-04-20T13:44:44.828Z,1.1
2023-04-20T13:45:54.552Z,1
2023-04-20T13:47:04.163Z,1.4
2023-04-20T13:48:12.854Z,1.1
2023-04-20T13:49:22.784Z,1.3
2023-04-20T13:50:32.241Z,1.4
2023-04-20T13:51:41.911Z,1.1
2023-04-20T13:52:49.631Z,1.4
2023-04-20T13:53:58.270Z,1.4
2023-04-20T13:55:08.043Z,2
2023-04-20T13:56:16.723Z,1.6
2023-04-20T13:57:25.356Z,1.6
2023-04-20T13:58:35.044Z,1.3
2023-04-20T13:59:43.766Z,1.3
2023-04-20T14:00:53.448Z,1.2
2023-04-20T14:02:02.216Z,1.4
2023-04-20T14:03:11.090Z,1
2023-04-20T14:04:20.026Z,1.4
2023-04-20T14:05:27.312Z,1.2
2023-04-20T14:06:36.951Z,1.6
2023-04-20T14:07:46.707Z,1.2
2023-04-20T14:08:57.022Z,1.6
2023-04-20T14:10:06.762Z,1.1
2023-04-20T14:11:15.474Z,1.5
2023-04-20T14:12:23.124Z,1.6
2023-04-20T14:13:31.855Z,1.6
2023-04-20T14:14:40.584Z,1.5
2023-04-20T14:15:49.298Z,1.8
2023-04-20T14:16:58.963Z,1.4
2023-04-20T14:18:06.654Z,1.3
2023-04-20T14:19:16.343Z,1.3
2023-04-20T14:20:25.010Z,1.8
2023-04-20T14:21:33.747Z,1.8
2023-04-20T14:22:43.385Z,1.4
2023-04-20T14:23:52.050Z,1.4
2023-04-20T14:25:00.726Z,1.3
2023-04-20T14:26:10.409Z,1.7
2023-04-20T14:27:20.078Z,1.5
2023-04-20T14:28:31.218Z,1.4
2023-04-20T14:29:39.647Z,1.2
2023-04-20T14:30:48.297Z,1.5
2023-04-20T14:31:58.062Z,1.9
2023-04-20T14:33:06.706Z,1.6
2023-04-20T14:34:16.526Z,1.5
2023-04-20T14:35:26.080Z,1.5
2023-04-20T14:36:33.731Z,1.4
2023-04-20T14:37:43.445Z,1.6
2023-04-20T14:38:52.090Z,1.5
2023-04-20T14:39:59.786Z,2
2023-04-20T14:41:09.444Z,1.9
2023-04-20T14:42:18.113Z,1.4
2023-04-20T14:43:27.820Z,2.1
2023-04-20T14:44:37.554Z,1.8
2023-04-20T14:45:46.216Z,1.6
2023-04-20T14:46:55.987Z,2.1
2023-04-20T14:48:04.641Z,1.9
2023-04-20T14:49:13.292Z,1.7
2023-04-20T14:50:23.003Z,1.6
2023-04-20T14:51:30.660Z,2.3
2023-04-20T14:52:39.309Z,2
2023-04-20T14:53:48.977Z,2.1
2023-04-20T14:54:56.658Z,1.4
2023-04-20T14:56:05.362Z,1.8
2023-04-20T14:57:14.010Z,1.7
2023-04-20T14:58:23.672Z,2.2
2023-04-20T14:59:33.868Z,1.6
2023-04-20T15:00:42.086Z,1.9
2023-04-20T15:02:01.454Z,1.9
2023-04-20T15:03:01.704Z,1.8
2023-04-20T15:04:09.245Z,1.9
2023-04-20T15:05:20.017Z,1.6
2023-04-20T15:06:28.467Z,2
2023-04-20T15:07:36.147Z,1.8
2023-04-20T15:08:45.862Z,2
2023-04-20T15:09:53.608Z,1.5
2023-04-20T15:11:03.356Z,1.9
2023-04-20T15:12:13.258Z,1.5
2023-04-20T15:13:22.881Z,1.4
2023-04-20T15:14:32.613Z,1.3
2023-04-20T15:16:53.023Z,1.9
2023-04-20T15:18:02.737Z,2.1
2023-04-20T15:19:10.481Z,2.1
2023-04-20T15:20:20.216Z,1.9
2023-04-20T15:21:29.906Z,2.2
2023-04-20T15:22:38.575Z,1.8
2023-04-20T15:23:48.237Z,1.9
2023-04-20T15:24:56.939Z,1.8
2023-04-20T15:26:05.609Z,1.2
2023-04-20T15:27:15.265Z,4
2023-04-20T15:28:22.949Z,2.1
2023-04-20T15:29:30.627Z,0.9
2023-04-20T15:30:40.299Z,1.1
2023-04-20T15:31:48.997Z,1
2023-04-20T15:33:04.300Z,1.2
2023-04-20T15:34:08.347Z,1.3
2023-04-20T15:35:16.038Z,1.4
2023-04-20T15:36:25.713Z,1.3
2023-04-20T15:37:33.433Z,1.1
2023-04-20T15:38:42.084Z,1.2
2023-04-20T15:39:51.799Z,1.4
2023-04-20T15:41:00.480Z,1.3
2023-04-20T15:42:10.136Z,1.6
2023-04-20T15:43:18.812Z,1.2
2023-04-20T15:44:26.530Z,1.4
2023-04-20T15:45:36.308Z,1.2
2023-04-20T15:46:44.965Z,1.4
2023-04-20T15:47:53.684Z,1.3
2023-04-20T15:49:03.347Z,1.2
2023-04-20T15:50:13.066Z,1.7
2023-04-20T15:51:20.751Z,1.2
2023-04-20T15:52:31.407Z,0.9
2023-04-20T15:53:40.124Z,1.1
2023-04-20T15:54:48.812Z,1.1
2023-04-20T15:55:58.499Z,1.3
2023-04-20T15:57:06.192Z,1.3
2023-04-20T15:58:15.824Z,2.2